sensor_id;sensor_type;location;lat;lon;timestamp;P1;durP1;ratioP1;P2;durP2;ratioP2
43835;SDS011;39345;43.964;25.340;2023-05-23T00:01:56;13.55;;;7.60;;
43835;SDS011;39345;43.964;25.340;2023-05-23T00:04:24;15.80;;;7.93;;
43835;SDS011;39345;43.964;25.340;2023-05-23T00:06:52;12.38;;;7.18;;
43835;SDS011;39345;43.964;25.340;2023-05-23T00:09:20;12.85;;;7.95;;
43835;SDS011;39345;43.964;25.340;2023-05-23T00:11:47;12.35;;;8.40;;
43835;SDS011;39345;43.964;25.340;2023-05-23T00:14:15;14.32;;;8.40;;
43835;SDS011;39345;43.964;25.340;2023-05-23T00:16:44;13.88;;;7.93;;
43835;SDS011;39345;43.964;25.340;2023-05-23T00:19:15;11.30;;;8.00;;
43835;SDS011;39345;43.964;25.340;2023-05-23T00:21:42;19.17;;;8.27;;
43835;SDS011;39345;43.964;25.340;2023-05-23T00:24:11;12.90;;;8.00;;
43835;SDS011;39345;43.964;25.340;2023-05-23T00:26:38;12.68;;;7.93;;
43835;SDS011;39345;43.964;25.340;2023-05-23T00:29:06;17.83;;;8.80;;
43835;SDS011;39345;43.964;25.340;2023-05-23T00:31:33;13.90;;;8.82;;
43835;SDS011;39345;43.964;25.340;2023-05-23T00:34:01;13.70;;;8.23;;
43835;SDS011;39345;43.964;25.340;2023-05-23T00:36:28;17.05;;;8.68;;
43835;SDS011;39345;43.964;25.340;2023-05-23T00:38:56;12.55;;;8.73;;
43835;SDS011;39345;43.964;25.340;2023-05-23T00:41:23;12.43;;;9.07;;
43835;SDS011;39345;43.964;25.340;2023-05-23T00:43:52;14.30;;;7.75;;
43835;SDS011;39345;43.964;25.340;2023-05-23T00:46:19;11.80;;;8.45;;
43835;SDS011;39345;43.964;25.340;2023-05-23T00:48:47;15.45;;;8.18;;
43835;SDS011;39345;43.964;25.340;2023-05-23T00:51:16;14.45;;;8.38;;
43835;SDS011;39345;43.964;25.340;2023-05-23T00:53:43;14.70;;;8.38;;
43835;SDS011;39345;43.964;25.340;2023-05-23T00:56:11;12.02;;;8.45;;
43835;SDS011;39345;43.964;25.340;2023-05-23T00:58:39;13.93;;;8.23;;
43835;SDS011;39345;43.964;25.340;2023-05-23T01:01:07;13.90;;;8.20;;
43835;SDS011;39345;43.964;25.340;2023-05-23T01:03:34;13.90;;;8.48;;
43835;SDS011;39345;43.964;25.340;2023-05-23T01:06:03;11.13;;;8.32;;
43835;SDS011;39345;43.964;25.340;2023-05-23T01:08:30;15.05;;;8.35;;
43835;SDS011;39345;43.964;25.340;2023-05-23T01:10:59;16.45;;;9.00;;
43835;SDS011;39345;43.964;25.340;2023-05-23T01:15:57;14.35;;;8.70;;
43835;SDS011;39345;43.964;25.340;2023-05-23T01:18:32;16.73;;;9.13;;
43835;SDS011;39345;43.964;25.340;2023-05-23T01:21:10;16.15;;;9.13;;
43835;SDS011;39345;43.964;25.340;2023-05-23T01:29:06;13.00;;;9.13;;
43835;SDS011;39345;43.964;25.340;2023-05-23T01:31:36;14.00;;;8.55;;
43835;SDS011;39345;43.964;25.340;2023-05-23T01:34:05;14.23;;;8.70;;
43835;SDS011;39345;43.964;25.340;2023-05-23T01:36:34;15.85;;;8.55;;
43835;SDS011;39345;43.964;25.340;2023-05-23T01:39:03;17.30;;;9.07;;
43835;SDS011;39345;43.964;25.340;2023-05-23T01:41:33;14.30;;;9.23;;
43835;SDS011;39345;43.964;25.340;2023-05-23T01:44:01;15.27;;;8.77;;
43835;SDS011;39345;43.964;25.340;2023-05-23T01:46:29;16.33;;;9.25;;
43835;SDS011;39345;43.964;25.340;2023-05-23T01:48:57;15.98;;;9.23;;
43835;SDS011;39345;43.964;25.340;2023-05-23T01:51:25;15.77;;;9.27;;
43835;SDS011;39345;43.964;25.340;2023-05-23T01:53:52;13.48;;;9.40;;
43835;SDS011;39345;43.964;25.340;2023-05-23T01:56:20;16.67;;;9.73;;
43835;SDS011;39345;43.964;25.340;2023-05-23T01:58:49;14.10;;;9.73;;
43835;SDS011;39345;43.964;25.340;2023-05-23T02:01:17;13.75;;;9.88;;
43835;SDS011;39345;43.964;25.340;2023-05-23T02:03:45;12.65;;;9.65;;
43835;SDS011;39345;43.964;25.340;2023-05-23T02:06:12;19.60;;;10.20;;
43835;SDS011;39345;43.964;25.340;2023-05-23T02:08:40;16.90;;;10.38;;
43835;SDS011;39345;43.964;25.340;2023-05-23T02:11:07;13.23;;;10.07;;
43835;SDS011;39345;43.964;25.340;2023-05-23T02:13:36;18.45;;;10.90;;
43835;SDS011;39345;43.964;25.340;2023-05-23T02:16:03;18.70;;;10.40;;
43835;SDS011;39345;43.964;25.340;2023-05-23T02:18:31;16.60;;;10.40;;
43835;SDS011;39345;43.964;25.340;2023-05-23T02:20:59;15.07;;;10.57;;
43835;SDS011;39345;43.964;25.340;2023-05-23T02:23:27;18.23;;;10.35;;
43835;SDS011;39345;43.964;25.340;2023-05-23T02:25:54;13.57;;;10.48;;
43835;SDS011;39345;43.964;25.340;2023-05-23T02:28:22;15.25;;;10.30;;
43835;SDS011;39345;43.964;25.340;2023-05-23T02:30:50;20.08;;;11.05;;
43835;SDS011;39345;43.964;25.340;2023-05-23T02:33:17;18.65;;;11.98;;
43835;SDS011;39345;43.964;25.340;2023-05-23T02:35:45;17.83;;;11.35;;
43835;SDS011;39345;43.964;25.340;2023-05-23T02:38:13;21.10;;;10.90;;
43835;SDS011;39345;43.964;25.340;2023-05-23T02:40:42;17.77;;;11.55;;
43835;SDS011;39345;43.964;25.340;2023-05-23T02:43:09;16.30;;;10.85;;
43835;SDS011;39345;43.964;25.340;2023-05-23T02:45:37;16.00;;;10.98;;
43835;SDS011;39345;43.964;25.340;2023-05-23T02:48:04;21.80;;;11.82;;
43835;SDS011;39345;43.964;25.340;2023-05-23T02:50:32;15.98;;;11.10;;
43835;SDS011;39345;43.964;25.340;2023-05-23T02:52:59;21.27;;;11.15;;
43835;SDS011;39345;43.964;25.340;2023-05-23T02:55:27;18.80;;;11.68;;
43835;SDS011;39345;43.964;25.340;2023-05-23T02:57:55;18.33;;;10.95;;
43835;SDS011;39345;43.964;25.340;2023-05-23T03:00:24;17.45;;;11.27;;
43835;SDS011;39345;43.964;25.340;2023-05-23T03:02:54;18.27;;;10.50;;
43835;SDS011;39345;43.964;25.340;2023-05-23T03:05:22;14.73;;;11.05;;
43835;SDS011;39345;43.964;25.340;2023-05-23T03:07:50;16.98;;;11.07;;
43835;SDS011;39345;43.964;25.340;2023-05-23T03:10:17;14.57;;;11.43;;
43835;SDS011;39345;43.964;25.340;2023-05-23T03:12:45;20.23;;;11.38;;
43835;SDS011;39345;43.964;25.340;2023-05-23T03:15:15;15.52;;;10.77;;
43835;SDS011;39345;43.964;25.340;2023-05-23T03:17:43;16.48;;;11.05;;
43835;SDS011;39345;43.964;25.340;2023-05-23T03:20:14;19.98;;;11.15;;
43835;SDS011;39345;43.964;25.340;2023-05-23T03:22:41;13.88;;;10.75;;
43835;SDS011;39345;43.964;25.340;2023-05-23T03:25:11;16.10;;;11.13;;
43835;SDS011;39345;43.964;25.340;2023-05-23T03:27:38;19.98;;;11.25;;
43835;SDS011;39345;43.964;25.340;2023-05-23T03:30:06;13.27;;;10.27;;
43835;SDS011;39345;43.964;25.340;2023-05-23T03:32:34;21.40;;;10.90;;
43835;SDS011;39345;43.964;25.340;2023-05-23T03:35:03;19.13;;;11.13;;
43835;SDS011;39345;43.964;25.340;2023-05-23T03:37:30;15.68;;;10.18;;
43835;SDS011;39345;43.964;25.340;2023-05-23T03:39:58;18.27;;;11.57;;
43835;SDS011;39345;43.964;25.340;2023-05-23T03:42:27;15.50;;;10.52;;
43835;SDS011;39345;43.964;25.340;2023-05-23T03:44:54;16.10;;;11.23;;
43835;SDS011;39345;43.964;25.340;2023-05-23T03:47:22;15.48;;;10.93;;
43835;SDS011;39345;43.964;25.340;2023-05-23T03:49:50;16.88;;;10.63;;
43835;SDS011;39345;43.964;25.340;2023-05-23T03:52:18;14.57;;;10.65;;
43835;SDS011;39345;43.964;25.340;2023-05-23T03:54:46;19.48;;;11.35;;
43835;SDS011;39345;43.964;25.340;2023-05-23T03:57:14;16.90;;;11.73;;
43835;SDS011;39345;43.964;25.340;2023-05-23T03:59:42;17.92;;;11.23;;
43835;SDS011;39345;43.964;25.340;2023-05-23T04:02:11;16.88;;;10.95;;
43835;SDS011;39345;43.964;25.340;2023-05-23T04:04:38;16.55;;;10.98;;
43835;SDS011;39345;43.964;25.340;2023-05-23T04:07:06;21.67;;;11.20;;
43835;SDS011;39345;43.964;25.340;2023-05-23T04:09:37;15.35;;;11.15;;
43835;SDS011;39345;43.964;25.340;2023-05-23T04:12:09;17.67;;;11.50;;
43835;SDS011;39345;43.964;25.340;2023-05-23T04:14:37;14.50;;;10.85;;
43835;SDS011;39345;43.964;25.340;2023-05-23T04:17:05;21.50;;;10.15;;
43835;SDS011;39345;43.964;25.340;2023-05-23T04:19:34;17.42;;;11.38;;
43835;SDS011;39345;43.964;25.340;2023-05-23T04:22:02;18.88;;;11.00;;
43835;SDS011;39345;43.964;25.340;2023-05-23T04:24:31;15.15;;;11.00;;
43835;SDS011;39345;43.964;25.340;2023-05-23T04:26:58;14.15;;;10.27;;
43835;SDS011;39345;43.964;25.340;2023-05-23T04:29:26;16.63;;;10.45;;
43835;SDS011;39345;43.964;25.340;2023-05-23T04:31:57;16.00;;;10.60;;
43835;SDS011;39345;43.964;25.340;2023-05-23T04:34:24;16.73;;;11.40;;
43835;SDS011;39345;43.964;25.340;2023-05-23T04:36:52;16.42;;;10.30;;
43835;SDS011;39345;43.964;25.340;2023-05-23T04:39:20;17.58;;;10.38;;
43835;SDS011;39345;43.964;25.340;2023-05-23T04:42:11;17.60;;;11.32;;
43835;SDS011;39345;43.964;25.340;2023-05-23T04:44:49;18.42;;;12.00;;
43835;SDS011;39345;43.964;25.340;2023-05-23T04:47:27;21.20;;;11.63;;
43835;SDS011;39345;43.964;25.340;2023-05-23T04:50:04;18.30;;;11.60;;
43835;SDS011;39345;43.964;25.340;2023-05-23T04:52:32;17.00;;;10.40;;
43835;SDS011;39345;43.964;25.340;2023-05-23T04:55:00;17.40;;;11.32;;
43835;SDS011;39345;43.964;25.340;2023-05-23T04:57:28;16.75;;;10.32;;
43835;SDS011;39345;43.964;25.340;2023-05-23T04:59:56;16.88;;;11.38;;
43835;SDS011;39345;43.964;25.340;2023-05-23T05:02:25;22.02;;;11.30;;
43835;SDS011;39345;43.964;25.340;2023-05-23T05:04:53;16.70;;;10.95;;
43835;SDS011;39345;43.964;25.340;2023-05-23T05:07:20;18.00;;;11.40;;
43835;SDS011;39345;43.964;25.340;2023-05-23T05:09:48;17.33;;;10.25;;
43835;SDS011;39345;43.964;25.340;2023-05-23T05:12:16;15.18;;;10.48;;
43835;SDS011;39345;43.964;25.340;2023-05-23T05:14:43;17.73;;;10.63;;
43835;SDS011;39345;43.964;25.340;2023-05-23T05:17:11;20.45;;;10.57;;
43835;SDS011;39345;43.964;25.340;2023-05-23T05:19:50;18.02;;;10.63;;
43835;SDS011;39345;43.964;25.340;2023-05-23T05:22:17;17.85;;;10.18;;
43835;SDS011;39345;43.964;25.340;2023-05-23T05:24:45;12.60;;;9.40;;
43835;SDS011;39345;43.964;25.340;2023-05-23T05:27:12;13.35;;;9.77;;
43835;SDS011;39345;43.964;25.340;2023-05-23T05:29:40;18.00;;;9.75;;
43835;SDS011;39345;43.964;25.340;2023-05-23T05:32:08;12.15;;;9.05;;
43835;SDS011;39345;43.964;25.340;2023-05-23T05:34:35;12.73;;;8.65;;
43835;SDS011;39345;43.964;25.340;2023-05-23T05:37:04;14.52;;;9.57;;
43835;SDS011;39345;43.964;25.340;2023-05-23T05:39:32;15.40;;;8.80;;
43835;SDS011;39345;43.964;25.340;2023-05-23T05:41:59;11.38;;;9.23;;
43835;SDS011;39345;43.964;25.340;2023-05-23T05:44:29;12.70;;;8.57;;
43835;SDS011;39345;43.964;25.340;2023-05-23T05:46:57;18.10;;;9.38;;
43835;SDS011;39345;43.964;25.340;2023-05-23T05:49:24;15.63;;;9.57;;
43835;SDS011;39345;43.964;25.340;2023-05-23T05:51:53;14.07;;;8.70;;
43835;SDS011;39345;43.964;25.340;2023-05-23T05:54:21;10.18;;;8.27;;
43835;SDS011;39345;43.964;25.340;2023-05-23T05:56:49;16.08;;;8.52;;
43835;SDS011;39345;43.964;25.340;2023-05-23T05:59:16;15.70;;;8.80;;
43835;SDS011;39345;43.964;25.340;2023-05-23T06:01:44;14.23;;;8.48;;
43835;SDS011;39345;43.964;25.340;2023-05-23T06:04:11;13.10;;;9.10;;
43835;SDS011;39345;43.964;25.340;2023-05-23T06:06:40;14.35;;;9.32;;
43835;SDS011;39345;43.964;25.340;2023-05-23T06:09:08;11.48;;;8.40;;
43835;SDS011;39345;43.964;25.340;2023-05-23T06:11:36;13.07;;;8.50;;
43835;SDS011;39345;43.964;25.340;2023-05-23T06:14:07;14.60;;;8.40;;
43835;SDS011;39345;43.964;25.340;2023-05-23T06:16:38;13.85;;;8.60;;
43835;SDS011;39345;43.964;25.340;2023-05-23T06:19:06;12.50;;;8.30;;
43835;SDS011;39345;43.964;25.340;2023-05-23T06:21:35;12.80;;;8.20;;
43835;SDS011;39345;43.964;25.340;2023-05-23T06:24:05;14.10;;;8.38;;
43835;SDS011;39345;43.964;25.340;2023-05-23T06:26:32;12.90;;;7.82;;
43835;SDS011;39345;43.964;25.340;2023-05-23T06:29:00;11.75;;;7.25;;
43835;SDS011;39345;43.964;25.340;2023-05-23T06:31:27;14.30;;;7.60;;
43835;SDS011;39345;43.964;25.340;2023-05-23T06:33:56;12.27;;;7.95;;
43835;SDS011;39345;43.964;25.340;2023-05-23T06:36:24;13.27;;;8.10;;
43835;SDS011;39345;43.964;25.340;2023-05-23T06:38:53;13.82;;;7.57;;
43835;SDS011;39345;43.964;25.340;2023-05-23T06:41:21;14.27;;;7.45;;
43835;SDS011;39345;43.964;25.340;2023-05-23T06:43:51;13.38;;;7.03;;
43835;SDS011;39345;43.964;25.340;2023-05-23T06:46:23;9.35;;;7.03;;
43835;SDS011;39345;43.964;25.340;2023-05-23T06:48:51;10.32;;;6.72;;
43835;SDS011;39345;43.964;25.340;2023-05-23T06:51:38;8.27;;;6.28;;
43835;SDS011;39345;43.964;25.340;2023-05-23T06:54:06;8.07;;;5.90;;
43835;SDS011;39345;43.964;25.340;2023-05-23T06:56:34;6.63;;;5.93;;
43835;SDS011;39345;43.964;25.340;2023-05-23T06:59:02;8.05;;;5.80;;
43835;SDS011;39345;43.964;25.340;2023-05-23T07:01:30;12.43;;;7.00;;
43835;SDS011;39345;43.964;25.340;2023-05-23T07:03:58;9.23;;;6.55;;
43835;SDS011;39345;43.964;25.340;2023-05-23T07:06:25;8.80;;;5.35;;
43835;SDS011;39345;43.964;25.340;2023-05-23T07:08:53;6.65;;;4.95;;
43835;SDS011;39345;43.964;25.340;2023-05-23T07:11:22;9.60;;;5.63;;
43835;SDS011;39345;43.964;25.340;2023-05-23T07:13:53;8.82;;;5.60;;
43835;SDS011;39345;43.964;25.340;2023-05-23T07:16:34;6.05;;;5.18;;
43835;SDS011;39345;43.964;25.340;2023-05-23T07:19:05;7.57;;;5.43;;
43835;SDS011;39345;43.964;25.340;2023-05-23T07:21:39;7.18;;;5.90;;
43835;SDS011;39345;43.964;25.340;2023-05-23T07:24:06;8.70;;;5.22;;
43835;SDS011;39345;43.964;25.340;2023-05-23T07:26:34;7.50;;;5.28;;
43835;SDS011;39345;43.964;25.340;2023-05-23T07:29:01;9.73;;;5.50;;
43835;SDS011;39345;43.964;25.340;2023-05-23T07:31:29;7.75;;;5.53;;
43835;SDS011;39345;43.964;25.340;2023-05-23T07:33:58;6.07;;;4.90;;
43835;SDS011;39345;43.964;25.340;2023-05-23T07:36:32;6.55;;;4.82;;
43835;SDS011;39345;43.964;25.340;2023-05-23T07:39:02;104.90;;;11.45;;
43835;SDS011;39345;43.964;25.340;2023-05-23T07:41:30;13.57;;;5.07;;
43835;SDS011;39345;43.964;25.340;2023-05-23T07:43:57;7.65;;;5.03;;
43835;SDS011;39345;43.964;25.340;2023-05-23T07:46:25;34.20;;;7.25;;
43835;SDS011;39345;43.964;25.340;2023-05-23T07:48:52;21.70;;;6.43;;
43835;SDS011;39345;43.964;25.340;2023-05-23T07:51:21;34.90;;;9.32;;
43835;SDS011;39345;43.964;25.340;2023-05-23T07:53:50;9.05;;;4.93;;
43835;SDS011;39345;43.964;25.340;2023-05-23T07:56:20;6.65;;;5.25;;
43835;SDS011;39345;43.964;25.340;2023-05-23T07:58:48;9.82;;;4.18;;
43835;SDS011;39345;43.964;25.340;2023-05-23T08:01:16;8.15;;;4.93;;
43835;SDS011;39345;43.964;25.340;2023-05-23T08:04:04;8.27;;;5.40;;
43835;SDS011;39345;43.964;25.340;2023-05-23T08:06:44;10.55;;;4.80;;
43835;SDS011;39345;43.964;25.340;2023-05-23T08:09:40;64.88;;;9.90;;
43835;SDS011;39345;43.964;25.340;2023-05-23T08:12:11;9.23;;;4.32;;
43835;SDS011;39345;43.964;25.340;2023-05-23T08:14:39;7.88;;;4.15;;
43835;SDS011;39345;43.964;25.340;2023-05-23T08:17:22;6.00;;;4.22;;
43835;SDS011;39345;43.964;25.340;2023-05-23T08:19:51;8.43;;;4.03;;
43835;SDS011;39345;43.964;25.340;2023-05-23T08:22:18;8.68;;;4.25;;
43835;SDS011;39345;43.964;25.340;2023-05-23T08:24:46;6.75;;;3.83;;
43835;SDS011;39345;43.964;25.340;2023-05-23T08:27:14;5.93;;;4.25;;
43835;SDS011;39345;43.964;25.340;2023-05-23T08:29:43;4.75;;;3.88;;
43835;SDS011;39345;43.964;25.340;2023-05-23T08:32:11;9.15;;;4.95;;
43835;SDS011;39345;43.964;25.340;2023-05-23T08:34:39;7.25;;;4.07;;
43835;SDS011;39345;43.964;25.340;2023-05-23T08:37:07;5.43;;;4.57;;
43835;SDS011;39345;43.964;25.340;2023-05-23T08:39:35;6.32;;;4.28;;
43835;SDS011;39345;43.964;25.340;2023-05-23T08:42:31;5.75;;;3.95;;
43835;SDS011;39345;43.964;25.340;2023-05-23T08:44:59;8.15;;;6.22;;
43835;SDS011;39345;43.964;25.340;2023-05-23T08:47:27;6.53;;;3.88;;
43835;SDS011;39345;43.964;25.340;2023-05-23T08:50:00;4.82;;;4.28;;
43835;SDS011;39345;43.964;25.340;2023-05-23T08:52:28;9.02;;;4.13;;
43835;SDS011;39345;43.964;25.340;2023-05-23T08:55:00;6.03;;;4.70;;
43835;SDS011;39345;43.964;25.340;2023-05-23T08:57:29;7.45;;;4.07;;
43835;SDS011;39345;43.964;25.340;2023-05-23T09:00:05;8.15;;;4.20;;
43835;SDS011;39345;43.964;25.340;2023-05-23T09:02:43;7.95;;;4.45;;
43835;SDS011;39345;43.964;25.340;2023-05-23T09:05:26;7.78;;;4.35;;
43835;SDS011;39345;43.964;25.340;2023-05-23T09:07:54;7.72;;;3.92;;
43835;SDS011;39345;43.964;25.340;2023-05-23T09:10:23;8.40;;;4.30;;
43835;SDS011;39345;43.964;25.340;2023-05-23T09:12:50;7.25;;;4.22;;
43835;SDS011;39345;43.964;25.340;2023-05-23T09:15:18;7.35;;;3.90;;
43835;SDS011;39345;43.964;25.340;2023-05-23T09:17:47;7.60;;;3.75;;
43835;SDS011;39345;43.964;25.340;2023-05-23T09:20:16;5.38;;;3.58;;
43835;SDS011;39345;43.964;25.340;2023-05-23T09:22:53;6.93;;;3.67;;
43835;SDS011;39345;43.964;25.340;2023-05-23T09:25:21;6.45;;;4.07;;
43835;SDS011;39345;43.964;25.340;2023-05-23T09:27:50;5.38;;;3.60;;
43835;SDS011;39345;43.964;25.340;2023-05-23T09:30:19;7.90;;;3.88;;
43835;SDS011;39345;43.964;25.340;2023-05-23T09:33:05;12.45;;;4.25;;
43835;SDS011;39345;43.964;25.340;2023-05-23T09:35:33;6.90;;;4.22;;
43835;SDS011;39345;43.964;25.340;2023-05-23T09:38:00;6.28;;;3.70;;
43835;SDS011;39345;43.964;25.340;2023-05-23T09:40:30;7.25;;;3.75;;
43835;SDS011;39345;43.964;25.340;2023-05-23T09:43:02;5.97;;;3.35;;
43835;SDS011;39345;43.964;25.340;2023-05-23T09:45:31;9.95;;;3.88;;
43835;SDS011;39345;43.964;25.340;2023-05-23T09:48:00;5.40;;;3.60;;
43835;SDS011;39345;43.964;25.340;2023-05-23T09:50:30;5.30;;;3.42;;
43835;SDS011;39345;43.964;25.340;2023-05-23T09:52:59;6.22;;;3.80;;
43835;SDS011;39345;43.964;25.340;2023-05-23T09:55:27;5.82;;;3.85;;
43835;SDS011;39345;43.964;25.340;2023-05-23T09:57:54;6.00;;;3.35;;
43835;SDS011;39345;43.964;25.340;2023-05-23T10:00:24;6.07;;;3.58;;
43835;SDS011;39345;43.964;25.340;2023-05-23T10:05:35;4.97;;;3.72;;
43835;SDS011;39345;43.964;25.340;2023-05-23T10:08:06;5.40;;;3.38;;
43835;SDS011;39345;43.964;25.340;2023-05-23T10:13:20;6.38;;;4.10;;
43835;SDS011;39345;43.964;25.340;2023-05-23T10:15:48;5.93;;;4.20;;
43835;SDS011;39345;43.964;25.340;2023-05-23T10:18:20;6.93;;;3.72;;
43835;SDS011;39345;43.964;25.340;2023-05-23T10:20:50;4.50;;;3.78;;
43835;SDS011;39345;43.964;25.340;2023-05-23T10:23:20;10.48;;;3.60;;
43835;SDS011;39345;43.964;25.340;2023-05-23T10:25:47;6.32;;;3.65;;
43835;SDS011;39345;43.964;25.340;2023-05-23T10:28:15;8.77;;;4.20;;
43835;SDS011;39345;43.964;25.340;2023-05-23T10:30:42;6.18;;;3.63;;
43835;SDS011;39345;43.964;25.340;2023-05-23T10:33:10;7.82;;;3.42;;
43835;SDS011;39345;43.964;25.340;2023-05-23T10:35:41;10.82;;;3.65;;
43835;SDS011;39345;43.964;25.340;2023-05-23T10:46:23;6.65;;;3.78;;
43835;SDS011;39345;43.964;25.340;2023-05-23T10:49:10;6.90;;;3.90;;
43835;SDS011;39345;43.964;25.340;2023-05-23T10:51:38;6.10;;;3.47;;
43835;SDS011;39345;43.964;25.340;2023-05-23T10:54:09;7.53;;;3.88;;
43835;SDS011;39345;43.964;25.340;2023-05-23T10:56:37;7.97;;;3.70;;
43835;SDS011;39345;43.964;25.340;2023-05-23T10:59:05;5.93;;;3.90;;
43835;SDS011;39345;43.964;25.340;2023-05-23T11:01:32;8.80;;;3.30;;
43835;SDS011;39345;43.964;25.340;2023-05-23T11:04:05;9.77;;;2.90;;
43835;SDS011;39345;43.964;25.340;2023-05-23T11:16:58;4.63;;;3.03;;
43835;SDS011;39345;43.964;25.340;2023-05-23T11:19:26;8.20;;;3.28;;
43835;SDS011;39345;43.964;25.340;2023-05-23T11:22:01;9.75;;;3.40;;
43835;SDS011;39345;43.964;25.340;2023-05-23T11:27:37;9.65;;;4.40;;
43835;SDS011;39345;43.964;25.340;2023-05-23T11:30:11;5.90;;;3.78;;
43835;SDS011;39345;43.964;25.340;2023-05-23T11:32:40;7.22;;;3.28;;
43835;SDS011;39345;43.964;25.340;2023-05-23T11:35:10;4.53;;;3.72;;
43835;SDS011;39345;43.964;25.340;2023-05-23T11:37:38;6.88;;;3.78;;
43835;SDS011;39345;43.964;25.340;2023-05-23T11:40:25;7.05;;;3.78;;
43835;SDS011;39345;43.964;25.340;2023-05-23T11:42:53;4.28;;;3.15;;
43835;SDS011;39345;43.964;25.340;2023-05-23T11:45:21;7.15;;;3.20;;
43835;SDS011;39345;43.964;25.340;2023-05-23T11:47:49;5.57;;;3.22;;
43835;SDS011;39345;43.964;25.340;2023-05-23T11:50:16;5.05;;;2.95;;
43835;SDS011;39345;43.964;25.340;2023-05-23T11:52:46;3.92;;;3.03;;
43835;SDS011;39345;43.964;25.340;2023-05-23T11:55:20;5.13;;;2.95;;
43835;SDS011;39345;43.964;25.340;2023-05-23T11:57:48;7.53;;;2.90;;
43835;SDS011;39345;43.964;25.340;2023-05-23T12:00:17;5.53;;;3.05;;
43835;SDS011;39345;43.964;25.340;2023-05-23T12:02:45;5.47;;;2.80;;
43835;SDS011;39345;43.964;25.340;2023-05-23T12:05:14;3.88;;;2.50;;
43835;SDS011;39345;43.964;25.340;2023-05-23T12:07:46;3.55;;;2.60;;
43835;SDS011;39345;43.964;25.340;2023-05-23T12:10:14;4.10;;;3.00;;
43835;SDS011;39345;43.964;25.340;2023-05-23T12:12:42;5.38;;;2.92;;
43835;SDS011;39345;43.964;25.340;2023-05-23T12:15:10;4.03;;;2.85;;
43835;SDS011;39345;43.964;25.340;2023-05-23T12:17:38;3.75;;;2.53;;
43835;SDS011;39345;43.964;25.340;2023-05-23T12:20:11;5.07;;;2.47;;
43835;SDS011;39345;43.964;25.340;2023-05-23T12:22:38;5.78;;;2.75;;
43835;SDS011;39345;43.964;25.340;2023-05-23T12:25:09;5.93;;;2.70;;
43835;SDS011;39345;43.964;25.340;2023-05-23T12:27:38;6.57;;;3.15;;
43835;SDS011;39345;43.964;25.340;2023-05-23T12:30:06;5.93;;;2.78;;
43835;SDS011;39345;43.964;25.340;2023-05-23T12:32:41;5.15;;;3.17;;
43835;SDS011;39345;43.964;25.340;2023-05-23T12:35:09;6.28;;;2.85;;
43835;SDS011;39345;43.964;25.340;2023-05-23T12:37:40;8.23;;;3.33;;
43835;SDS011;39345;43.964;25.340;2023-05-23T12:40:14;8.18;;;3.47;;
43835;SDS011;39345;43.964;25.340;2023-05-23T12:47:49;6.75;;;3.60;;
43835;SDS011;39345;43.964;25.340;2023-05-23T12:50:19;6.70;;;3.60;;
43835;SDS011;39345;43.964;25.340;2023-05-23T12:52:47;6.13;;;3.60;;
43835;SDS011;39345;43.964;25.340;2023-05-23T12:55:14;4.65;;;3.65;;
43835;SDS011;39345;43.964;25.340;2023-05-23T12:57:42;9.40;;;4.20;;
43835;SDS011;39345;43.964;25.340;2023-05-23T13:00:10;4.80;;;3.90;;
43835;SDS011;39345;43.964;25.340;2023-05-23T13:02:37;6.72;;;3.90;;
43835;SDS011;39345;43.964;25.340;2023-05-23T13:05:05;5.65;;;4.10;;
43835;SDS011;39345;43.964;25.340;2023-05-23T13:07:33;6.22;;;3.90;;
43835;SDS011;39345;43.964;25.340;2023-05-23T13:10:01;9.55;;;4.35;;
43835;SDS011;39345;43.964;25.340;2023-05-23T13:12:28;8.85;;;4.30;;
43835;SDS011;39345;43.964;25.340;2023-05-23T13:14:56;7.03;;;4.45;;
43835;SDS011;39345;43.964;25.340;2023-05-23T13:17:24;5.45;;;4.10;;
43835;SDS011;39345;43.964;25.340;2023-05-23T13:19:51;7.57;;;4.80;;
43835;SDS011;39345;43.964;25.340;2023-05-23T13:22:19;6.25;;;4.75;;
43835;SDS011;39345;43.964;25.340;2023-05-23T13:24:46;7.00;;;4.95;;
43835;SDS011;39345;43.964;25.340;2023-05-23T13:27:13;11.20;;;5.05;;
43835;SDS011;39345;43.964;25.340;2023-05-23T13:29:41;5.55;;;4.30;;
43835;SDS011;39345;43.964;25.340;2023-05-23T13:32:08;6.65;;;4.35;;
43835;SDS011;39345;43.964;25.340;2023-05-23T13:34:36;6.65;;;4.93;;
43835;SDS011;39345;43.964;25.340;2023-05-23T13:37:04;7.60;;;5.35;;
43835;SDS011;39345;43.964;25.340;2023-05-23T13:39:32;6.15;;;5.07;;
43835;SDS011;39345;43.964;25.340;2023-05-23T13:41:59;6.03;;;4.82;;
43835;SDS011;39345;43.964;25.340;2023-05-23T13:44:27;7.55;;;4.78;;
43835;SDS011;39345;43.964;25.340;2023-05-23T13:46:57;7.47;;;4.28;;
43835;SDS011;39345;43.964;25.340;2023-05-23T13:49:24;5.72;;;4.10;;
43835;SDS011;39345;43.964;25.340;2023-05-23T13:51:52;6.90;;;3.85;;
43835;SDS011;39345;43.964;25.340;2023-05-23T13:54:19;6.15;;;4.22;;
43835;SDS011;39345;43.964;25.340;2023-05-23T13:56:47;12.52;;;4.03;;
43835;SDS011;39345;43.964;25.340;2023-05-23T13:59:15;7.07;;;3.70;;
43835;SDS011;39345;43.964;25.340;2023-05-23T14:01:46;6.65;;;3.85;;
43835;SDS011;39345;43.964;25.340;2023-05-23T14:04:14;11.63;;;3.80;;
43835;SDS011;39345;43.964;25.340;2023-05-23T14:06:41;6.75;;;3.90;;
43835;SDS011;39345;43.964;25.340;2023-05-23T14:09:09;8.57;;;5.05;;
43835;SDS011;39345;43.964;25.340;2023-05-23T14:11:37;7.03;;;3.30;;
43835;SDS011;39345;43.964;25.340;2023-05-23T14:14:08;7.18;;;3.53;;
43835;SDS011;39345;43.964;25.340;2023-05-23T14:16:36;7.65;;;3.35;;
43835;SDS011;39345;43.964;25.340;2023-05-23T14:19:03;5.05;;;2.90;;
43835;SDS011;39345;43.964;25.340;2023-05-23T14:21:32;8.88;;;3.50;;
43835;SDS011;39345;43.964;25.340;2023-05-23T14:24:00;7.82;;;3.80;;
43835;SDS011;39345;43.964;25.340;2023-05-23T14:26:27;6.45;;;3.40;;
43835;SDS011;39345;43.964;25.340;2023-05-23T14:28:55;4.60;;;2.78;;
43835;SDS011;39345;43.964;25.340;2023-05-23T14:31:23;5.13;;;3.00;;
43835;SDS011;39345;43.964;25.340;2023-05-23T14:33:50;7.30;;;3.03;;
43835;SDS011;39345;43.964;25.340;2023-05-23T14:36:18;7.97;;;3.50;;
43835;SDS011;39345;43.964;25.340;2023-05-23T14:38:45;5.55;;;3.00;;
43835;SDS011;39345;43.964;25.340;2023-05-23T14:41:13;5.38;;;3.15;;
43835;SDS011;39345;43.964;25.340;2023-05-23T14:43:40;5.90;;;2.92;;
43835;SDS011;39345;43.964;25.340;2023-05-23T14:46:08;5.97;;;3.00;;
43835;SDS011;39345;43.964;25.340;2023-05-23T14:48:35;7.03;;;2.95;;
43835;SDS011;39345;43.964;25.340;2023-05-23T14:51:03;4.38;;;3.00;;
43835;SDS011;39345;43.964;25.340;2023-05-23T14:53:32;5.40;;;2.83;;
43835;SDS011;39345;43.964;25.340;2023-05-23T14:56:00;7.65;;;3.40;;
43835;SDS011;39345;43.964;25.340;2023-05-23T14:58:27;6.07;;;3.75;;
43835;SDS011;39345;43.964;25.340;2023-05-23T15:00:55;8.00;;;3.03;;
43835;SDS011;39345;43.964;25.340;2023-05-23T15:03:22;6.65;;;3.60;;
43835;SDS011;39345;43.964;25.340;2023-05-23T15:05:50;6.18;;;3.33;;
43835;SDS011;39345;43.964;25.340;2023-05-23T15:08:17;5.28;;;3.33;;
43835;SDS011;39345;43.964;25.340;2023-05-23T15:10:45;5.80;;;3.20;;
43835;SDS011;39345;43.964;25.340;2023-05-23T15:13:12;4.75;;;3.50;;
43835;SDS011;39345;43.964;25.340;2023-05-23T15:15:40;5.13;;;3.42;;
43835;SDS011;39345;43.964;25.340;2023-05-23T15:18:08;6.50;;;4.63;;